createdAt,value
2017-06-28T00:00:36.962Z,0
2017-06-28T00:01:17.437Z,0
2017-06-28T00:01:57.966Z,0
2017-06-28T00:02:38.402Z,0
2017-06-28T00:03:18.906Z,0
2017-06-28T00:03:59.503Z,0
2017-06-28T00:04:40.002Z,0
2017-06-28T00:05:20.539Z,0
2017-06-28T00:06:01.043Z,0
2017-06-28T00:06:41.550Z,0
2017-06-28T00:07:22.055Z,0
2017-06-28T00:08:02.553Z,0
2017-06-28T00:08:43.091Z,0
2017-06-28T00:09:23.566Z,0
2017-06-28T00:10:04.084Z,0
2017-06-28T00:10:44.606Z,0
2017-06-28T00:11:25.158Z,0
2017-06-28T00:13:59.562Z,0
2017-06-28T00:14:40.194Z,0
2017-06-28T00:15:20.705Z,0
2017-06-28T00:17:54.431Z,0
2017-06-28T00:18:34.976Z,0
2017-06-28T00:19:15.530Z,0
2017-06-28T00:19:55.983Z,0
2017-06-28T00:20:36.503Z,0
2017-06-28T00:21:17.035Z,0
2017-06-28T00:21:57.546Z,0
2017-06-28T00:22:38.068Z,0
2017-06-28T00:23:18.575Z,0
2017-06-28T00:23:59.096Z,0
2017-06-28T00:24:39.560Z,0
2017-06-28T00:25:20.029Z,0
2017-06-28T00:26:00.544Z,0
2017-06-28T00:26:41.051Z,0
2017-06-28T00:27:21.571Z,0
2017-06-28T00:28:02.137Z,0
2017-06-28T00:28:42.651Z,0
2017-06-28T00:29:23.256Z,0
2017-06-28T00:30:03.668Z,0
2017-06-28T00:30:44.222Z,0
2017-06-28T00:31:24.746Z,0
2017-06-28T00:32:05.197Z,0
2017-06-28T00:32:45.763Z,0
2017-06-28T00:33:26.203Z,0
2017-06-28T00:34:06.739Z,0
2017-06-28T00:34:47.214Z,0
2017-06-28T00:35:27.681Z,0
2017-06-28T00:36:08.204Z,0
2017-06-28T00:36:48.714Z,0
2017-06-28T00:37:29.179Z,0
2017-06-28T00:38:09.728Z,0
2017-06-28T00:38:50.259Z,0
2017-06-28T00:39:30.819Z,0
2017-06-28T00:40:11.919Z,0
2017-06-28T00:40:52.553Z,0
2017-06-28T00:41:33.029Z,0
2017-06-28T00:42:13.534Z,0
2017-06-28T00:42:54.009Z,0
2017-06-28T00:43:34.483Z,0
2017-06-28T00:44:15.048Z,0
2017-06-28T00:44:55.614Z,0
2017-06-28T00:45:36.099Z,0
2017-06-28T00:46:16.561Z,0
2017-06-28T00:46:57.090Z,0
2017-06-28T00:47:37.657Z,0
2017-06-28T00:48:18.113Z,0
2017-06-28T00:48:58.616Z,0
2017-06-28T00:49:39.078Z,0
2017-06-28T00:50:19.668Z,0
2017-06-28T00:51:00.086Z,0
2017-06-28T00:51:40.614Z,0
2017-06-28T00:52:21.169Z,0
2017-06-28T00:53:01.650Z,0
2017-06-28T00:53:42.233Z,0
2017-06-28T00:54:22.783Z,0
2017-06-28T00:55:03.223Z,0
2017-06-28T00:55:43.724Z,0
2017-06-28T00:56:24.221Z,0
2017-06-28T00:57:04.787Z,0
2017-06-28T00:57:45.291Z,0
2017-06-28T00:58:25.835Z,0
2017-06-28T00:59:07.970Z,0
2017-06-28T00:59:51.439Z,0
2017-06-28T01:00:31.995Z,0
2017-06-28T01:01:12.698Z,0
2017-06-28T01:01:53.177Z,0
2017-06-28T01:02:33.653Z,0
2017-06-28T01:03:14.255Z,0
2017-06-28T01:03:54.761Z,0
2017-06-28T01:04:35.314Z,0
2017-06-28T01:05:17.304Z,0
2017-06-28T01:05:57.981Z,0
2017-06-28T01:06:40.202Z,0
2017-06-28T01:07:19.873Z,0
2017-06-28T01:08:00.389Z,0
2017-06-28T01:08:40.919Z,0
2017-06-28T01:09:21.451Z,0
2017-06-28T01:10:01.982Z,0
2017-06-28T01:10:42.589Z,0
2017-06-28T01:11:23.043Z,0
2017-06-28T01:12:03.600Z,0
2017-06-28T01:12:44.116Z,0
2017-06-28T01:13:24.682Z,0
2017-06-28T01:14:05.227Z,0
2017-06-28T01:14:45.662Z,0
2017-06-28T01:15:26.196Z,0
2017-06-28T01:16:06.701Z,0
2017-06-28T01:16:47.192Z,0
2017-06-28T01:17:27.700Z,0
2017-06-28T01:18:08.357Z,0
2017-06-28T01:18:48.801Z,0
2017-06-28T01:19:29.354Z,0
2017-06-28T01:20:09.823Z,0
2017-06-28T01:20:50.360Z,0
2017-06-28T01:21:37.462Z,0
2017-06-28T01:22:17.922Z,0
2017-06-28T01:22:58.420Z,0
2017-06-28T01:25:11.721Z,0
2017-06-28T01:25:52.406Z,0
2017-06-28T01:26:32.909Z,0
2017-06-28T01:27:13.424Z,0
2017-06-28T01:27:53.903Z,0
2017-06-28T01:28:34.436Z,0
2017-06-28T01:29:14.966Z,0
2017-06-28T01:29:55.513Z,0
2017-06-28T01:30:36.000Z,0
2017-06-28T01:31:16.483Z,0
2017-06-28T01:31:56.995Z,0
2017-06-28T01:32:37.480Z,0
2017-06-28T01:33:18.034Z,0
2017-06-28T01:33:58.536Z,0
2017-06-28T01:34:39.083Z,0
2017-06-28T01:35:19.743Z,0
2017-06-28T01:36:00.301Z,0
2017-06-28T01:36:40.858Z,0
2017-06-28T01:37:21.300Z,0
2017-06-28T01:38:01.912Z,0
2017-06-28T01:38:42.429Z,0
2017-06-28T01:39:22.906Z,0
2017-06-28T01:40:03.411Z,0
2017-06-28T01:40:43.910Z,0
2017-06-28T01:41:24.444Z,0
2017-06-28T01:42:04.906Z,0
2017-06-28T01:42:45.471Z,0
2017-06-28T01:43:25.970Z,0
2017-06-28T01:44:06.498Z,0
2017-06-28T01:44:47.047Z,0
2017-06-28T01:45:27.582Z,0
2017-06-28T01:46:08.091Z,0
2017-06-28T01:46:48.570Z,0
2017-06-28T01:47:29.188Z,0
2017-06-28T01:48:09.617Z,0
2017-06-28T01:48:50.182Z,0
2017-06-28T01:49:30.705Z,0
2017-06-28T01:50:11.256Z,0
2017-06-28T01:50:51.829Z,0
2017-06-28T01:51:32.369Z,0
2017-06-28T01:52:12.870Z,0
2017-06-28T01:52:53.448Z,0
2017-06-28T01:53:33.909Z,0
2017-06-28T01:54:14.414Z,0
2017-06-28T01:54:54.920Z,0
2017-06-28T01:55:35.399Z,0
2017-06-28T01:56:15.973Z,0
2017-06-28T01:56:56.431Z,0
2017-06-28T01:57:36.922Z,0
2017-06-28T01:58:17.440Z,0
2017-06-28T01:58:57.973Z,0
2017-06-28T01:59:38.459Z,0
2017-06-28T02:00:18.953Z,0
2017-06-28T02:01:00.621Z,0
2017-06-28T02:01:55.989Z,0
2017-06-28T02:02:36.537Z,0
2017-06-28T02:03:17.047Z,0
2017-06-28T02:03:57.573Z,0
2017-06-28T02:06:36.286Z,0
2017-06-28T02:07:19.697Z,0
2017-06-28T02:08:00.762Z,0
2017-06-28T02:08:41.270Z,0
2017-06-28T02:09:21.798Z,0
2017-06-28T02:10:02.343Z,0
2017-06-28T02:10:42.898Z,0
2017-06-28T02:11:23.369Z,0
2017-06-28T02:12:03.873Z,0
2017-06-28T02:12:44.414Z,0
2017-06-28T02:13:24.937Z,0
2017-06-28T02:14:05.455Z,0
2017-06-28T02:14:45.976Z,0
2017-06-28T02:15:26.475Z,0
2017-06-28T02:16:06.969Z,0
2017-06-28T02:16:48.199Z,0
2017-06-28T02:17:28.719Z,0
2017-06-28T02:18:09.246Z,0
2017-06-28T02:18:49.789Z,0
2017-06-28T02:19:30.290Z,0
2017-06-28T02:20:10.779Z,0
2017-06-28T02:20:51.373Z,0
2017-06-28T02:21:31.913Z,0
2017-06-28T02:22:12.406Z,0
2017-06-28T02:22:53.025Z,0
2017-06-28T02:23:33.606Z,0
2017-06-28T02:24:14.123Z,0
2017-06-28T02:24:54.644Z,0
2017-06-28T02:25:38.798Z,0
2017-06-28T02:26:19.309Z,0
2017-06-28T02:26:59.840Z,0
2017-06-28T02:27:55.026Z,0
2017-06-28T02:28:35.587Z,0
2017-06-28T02:29:16.127Z,0
2017-06-28T02:29:56.788Z,0
2017-06-28T02:32:28.671Z,0
2017-06-28T02:33:11.592Z,0
2017-06-28T02:33:59.269Z,0
2017-06-28T02:34:41.610Z,0
2017-06-28T02:35:22.129Z,0
2017-06-28T02:36:02.656Z,0
2017-06-28T02:36:43.209Z,0
2017-06-28T02:37:23.650Z,0
2017-06-28T02:38:06.162Z,0
2017-06-28T02:38:46.657Z,0
2017-06-28T02:39:27.177Z,0
2017-06-28T02:40:11.580Z,0
2017-06-28T02:40:50.963Z,0
2017-06-28T02:41:31.464Z,0
2017-06-28T02:42:11.938Z,0
2017-06-28T02:42:52.510Z,0
2017-06-28T02:43:33.039Z,0
2017-06-28T02:44:13.523Z,0
2017-06-28T02:44:54.020Z,0
2017-06-28T02:45:34.506Z,0
2017-06-28T02:46:15.009Z,0
2017-06-28T02:46:55.515Z,0
2017-06-28T02:47:36.045Z,0
2017-06-28T02:48:16.546Z,0
2017-06-28T02:48:57.152Z,0
2017-06-28T02:49:37.553Z,0
2017-06-28T02:50:18.046Z,0
2017-06-28T02:50:58.642Z,0
2017-06-28T02:51:39.123Z,0
2017-06-28T02:52:19.580Z,0
2017-06-28T02:53:00.103Z,0
2017-06-28T02:53:40.603Z,0
2017-06-28T02:54:21.129Z,0
2017-06-28T02:55:01.663Z,0
2017-06-28T02:55:42.121Z,0
2017-06-28T02:56:22.719Z,0
2017-06-28T02:59:01.514Z,0
2017-06-28T02:59:42.015Z,0
2017-06-28T03:00:22.581Z,0
2017-06-28T03:01:03.549Z,0
2017-06-28T03:01:44.101Z,0
2017-06-28T03:02:24.582Z,0
2017-06-28T03:03:05.044Z,0
2017-06-28T03:03:45.584Z,0
2017-06-28T03:04:26.029Z,0
2017-06-28T03:05:06.548Z,0
2017-06-28T03:05:47.043Z,0
2017-06-28T03:06:27.528Z,0
2017-06-28T03:07:08.061Z,0
2017-06-28T03:07:48.589Z,0
2017-06-28T03:08:29.102Z,0
2017-06-28T03:09:09.654Z,0
2017-06-28T03:09:50.211Z,0
2017-06-28T03:10:30.693Z,0
2017-06-28T03:11:11.288Z,0
2017-06-28T03:11:51.761Z,0
2017-06-28T03:12:32.274Z,0
2017-06-28T03:13:12.800Z,0
2017-06-28T03:13:53.370Z,0
2017-06-28T03:14:33.860Z,0
2017-06-28T03:15:14.358Z,0
2017-06-28T03:15:54.782Z,0
2017-06-28T03:16:35.301Z,0
2017-06-28T03:17:15.785Z,0
2017-06-28T03:17:56.308Z,0
2017-06-28T03:18:36.789Z,0
2017-06-28T03:19:17.309Z,0
2017-06-28T03:19:57.818Z,0
2017-06-28T03:20:38.313Z,0
2017-06-28T03:21:18.991Z,0
2017-06-28T03:21:59.441Z,0
2017-06-28T03:22:39.966Z,0
2017-06-28T03:23:20.532Z,0
2017-06-28T03:24:00.994Z,0
2017-06-28T03:24:41.503Z,0
2017-06-28T03:25:21.992Z,0
2017-06-28T03:26:02.545Z,0
2017-06-28T03:26:43.006Z,0
2017-06-28T03:27:23.535Z,0
2017-06-28T03:28:04.094Z,0
2017-06-28T03:28:44.578Z,0
2017-06-28T03:29:25.049Z,0
2017-06-28T03:30:05.542Z,0
2017-06-28T03:30:46.042Z,0
2017-06-28T03:31:26.535Z,0
2017-06-28T03:32:07.034Z,0
2017-06-28T03:32:47.565Z,0
2017-06-28T03:33:28.064Z,0
2017-06-28T03:34:08.645Z,0
2017-06-28T03:34:49.141Z,0
2017-06-28T03:35:29.691Z,0
2017-06-28T03:36:10.149Z,0
2017-06-28T03:36:50.700Z,0
2017-06-28T03:37:31.193Z,0
2017-06-28T03:38:11.735Z,0
2017-06-28T03:38:52.292Z,0
2017-06-28T03:39:32.929Z,0
2017-06-28T03:40:13.389Z,0
2017-06-28T03:40:53.857Z,0
2017-06-28T03:41:34.414Z,0
2017-06-28T03:42:14.909Z,0
2017-06-28T03:42:55.539Z,0
2017-06-28T03:43:35.965Z,0
2017-06-28T03:44:16.485Z,0
2017-06-28T03:44:56.988Z,0
2017-06-28T03:45:37.499Z,0
2017-06-28T03:46:18.035Z,0
2017-06-28T03:46:58.524Z,0
2017-06-28T03:47:39.034Z,0
2017-06-28T03:48:19.542Z,0
2017-06-28T03:49:00.103Z,0
2017-06-28T03:49:40.580Z,0
2017-06-28T03:50:21.078Z,0
2017-06-28T03:51:01.585Z,0
2017-06-28T03:51:42.115Z,0
2017-06-28T03:52:22.695Z,0
2017-06-28T03:53:03.180Z,0
2017-06-28T03:53:43.621Z,0
2017-06-28T03:54:24.158Z,0
2017-06-28T03:55:04.637Z,0
2017-06-28T03:55:45.257Z,0
2017-06-28T03:56:25.771Z,0
2017-06-28T03:57:06.261Z,0
2017-06-28T03:57:46.765Z,0
2017-06-28T03:58:27.246Z,0
2017-06-28T03:59:07.774Z,0
2017-06-28T03:59:48.307Z,0
2017-06-28T04:00:28.815Z,0
2017-06-28T04:01:09.271Z,0
2017-06-28T04:01:49.806Z,0
2017-06-28T04:02:30.324Z,0
2017-06-28T04:03:10.820Z,0
2017-06-28T04:03:51.339Z,0
2017-06-28T04:04:31.946Z,0
2017-06-28T04:05:12.355Z,0
2017-06-28T04:05:52.883Z,0
2017-06-28T04:06:33.394Z,0
2017-06-28T04:07:13.888Z,0
2017-06-28T04:07:54.493Z,0
2017-06-28T04:08:35.025Z,0
2017-06-28T04:09:15.542Z,0
2017-06-28T04:09:55.975Z,0
2017-06-28T04:10:37.336Z,0
2017-06-28T04:11:17.836Z,0
2017-06-28T04:11:58.322Z,0
2017-06-28T04:12:38.808Z,0
2017-06-28T04:13:19.356Z,0
2017-06-28T04:13:59.812Z,0
2017-06-28T04:14:40.325Z,0
2017-06-28T04:15:20.810Z,0
2017-06-28T04:16:01.317Z,0
2017-06-28T04:16:41.808Z,0
2017-06-28T04:17:22.327Z,0
2017-06-28T04:18:02.834Z,0
2017-06-28T04:18:43.312Z,5
2017-06-28T04:19:23.817Z,5
2017-06-28T04:20:04.328Z,5
2017-06-28T04:20:44.801Z,5
2017-06-28T04:21:25.327Z,5
2017-06-28T04:22:05.819Z,5
2017-06-28T04:22:46.313Z,5
2017-06-28T04:23:26.931Z,5
2017-06-28T04:24:07.384Z,5
2017-06-28T04:24:47.885Z,5
2017-06-28T04:25:28.428Z,5
2017-06-28T04:26:08.930Z,5
2017-06-28T04:26:49.419Z,5
2017-06-28T04:27:29.898Z,5
2017-06-28T04:28:10.431Z,5
2017-06-28T04:28:50.972Z,5
2017-06-28T04:29:31.448Z,5
2017-06-28T04:30:11.983Z,5
2017-06-28T04:30:52.505Z,5
2017-06-28T04:31:33.037Z,5
2017-06-28T04:32:13.572Z,5
2017-06-28T04:32:54.119Z,5
2017-06-28T04:33:34.652Z,5
2017-06-28T04:34:15.192Z,5
2017-06-28T04:34:56.050Z,5
2017-06-28T04:35:36.494Z,5
2017-06-28T04:36:17.021Z,5
2017-06-28T04:36:57.538Z,5
2017-06-28T04:37:38.062Z,10
2017-06-28T04:38:18.593Z,10
2017-06-28T04:38:59.109Z,10
2017-06-28T04:39:39.676Z,10
2017-06-28T04:40:20.216Z,10
2017-06-28T04:41:01.023Z,10
2017-06-28T04:41:41.554Z,10
2017-06-28T04:42:22.080Z,10
2017-06-28T04:43:02.608Z,10
2017-06-28T04:43:43.134Z,10
2017-06-28T04:44:23.659Z,10
2017-06-28T04:45:04.883Z,10
2017-06-28T04:45:45.422Z,10
2017-06-28T04:46:25.947Z,10
2017-06-28T04:47:06.467Z,10
2017-06-28T04:47:48.046Z,10
2017-06-28T04:48:28.589Z,10
2017-06-28T04:49:09.114Z,10
2017-06-28T04:49:49.632Z,10
2017-06-28T04:50:30.149Z,10
2017-06-28T04:51:10.728Z,10
2017-06-28T04:51:51.240Z,15
2017-06-28T04:52:31.782Z,15
2017-06-28T04:53:12.289Z,15
2017-06-28T04:53:52.813Z,15
2017-06-28T04:54:33.384Z,15
2017-06-28T04:55:13.932Z,15
2017-06-28T04:55:54.456Z,15
2017-06-28T04:56:34.973Z,15
2017-06-28T04:57:15.497Z,15
2017-06-28T04:57:56.063Z,15
2017-06-28T04:58:36.585Z,15
2017-06-28T04:59:17.112Z,15
2017-06-28T04:59:57.628Z,15
2017-06-28T05:00:38.147Z,15
2017-06-28T05:01:18.684Z,15
2017-06-28T05:01:59.215Z,15
2017-06-28T05:02:39.737Z,15
2017-06-28T05:03:20.263Z,15
2017-06-28T05:04:00.797Z,15
2017-06-28T05:04:41.312Z,15
2017-06-28T05:05:21.837Z,20
2017-06-28T05:06:02.369Z,20
2017-06-28T05:06:42.891Z,20
2017-06-28T05:07:23.408Z,20
2017-06-28T05:08:03.922Z,20
2017-06-28T05:08:44.439Z,20
2017-06-28T05:09:24.961Z,20
2017-06-28T05:10:05.501Z,20
2017-06-28T05:10:46.020Z,20
2017-06-28T05:11:26.583Z,20
2017-06-28T05:12:07.821Z,20
2017-06-28T05:12:48.940Z,20
2017-06-28T05:13:29.463Z,20
2017-06-28T05:14:09.986Z,20
2017-06-28T05:14:50.501Z,20
2017-06-28T05:15:31.050Z,15
2017-06-28T05:16:11.530Z,15
2017-06-28T05:16:52.057Z,15
2017-06-28T05:17:32.538Z,15
2017-06-28T05:18:13.052Z,15
2017-06-28T05:18:53.549Z,15
2017-06-28T05:19:34.085Z,15
2017-06-28T05:20:14.590Z,15
2017-06-28T05:20:55.094Z,15
2017-06-28T05:21:35.573Z,15
2017-06-28T05:22:16.080Z,15
2017-06-28T05:22:56.597Z,15
2017-06-28T05:23:37.175Z,15
2017-06-28T05:24:17.706Z,15
2017-06-28T05:24:58.220Z,15
2017-06-28T05:25:38.729Z,15
2017-06-28T05:26:19.255Z,15
2017-06-28T05:26:59.762Z,15
2017-06-28T05:27:40.284Z,15
2017-06-28T05:28:20.802Z,15
2017-06-28T05:29:01.318Z,15
2017-06-28T05:29:41.840Z,15
2017-06-28T05:30:22.357Z,15
2017-06-28T05:31:02.884Z,15
2017-06-28T05:31:43.434Z,15
2017-06-28T05:32:23.987Z,15
2017-06-28T05:33:04.504Z,15
2017-06-28T05:33:45.023Z,15
2017-06-28T05:34:25.559Z,15
2017-06-28T05:35:06.055Z,15
2017-06-28T05:35:46.538Z,15
2017-06-28T05:36:27.038Z,15
2017-06-28T05:37:07.555Z,15
2017-06-28T05:37:48.028Z,15
2017-06-28T05:38:28.513Z,15
2017-06-28T05:39:09.106Z,15
2017-06-28T05:39:49.588Z,15
2017-06-28T05:40:30.105Z,15
2017-06-28T05:41:10.611Z,15
2017-06-28T05:41:51.133Z,15
2017-06-28T05:42:31.659Z,15
2017-06-28T05:43:12.193Z,20
2017-06-28T05:43:52.710Z,20
2017-06-28T05:44:33.254Z,20
2017-06-28T05:45:13.767Z,20
2017-06-28T05:45:54.307Z,20
2017-06-28T05:46:34.864Z,20
2017-06-28T05:47:15.384Z,20
2017-06-28T05:47:55.898Z,20
2017-06-28T05:48:36.421Z,20
2017-06-28T05:49:16.946Z,20
2017-06-28T05:49:57.467Z,20
2017-06-28T05:50:37.995Z,20
2017-06-28T05:51:18.513Z,20
2017-06-28T05:51:59.052Z,20
2017-06-28T05:52:39.576Z,25
2017-06-28T05:53:20.157Z,25
2017-06-28T05:54:00.680Z,25
2017-06-28T05:54:41.183Z,25
2017-06-28T05:55:21.704Z,30
2017-06-28T05:56:02.228Z,30
2017-06-28T05:56:42.760Z,30
2017-06-28T05:57:23.279Z,30
2017-06-28T05:58:03.805Z,30
2017-06-28T05:58:44.338Z,35
2017-06-28T05:59:24.870Z,35
2017-06-28T06:00:05.398Z,35
2017-06-28T06:00:45.930Z,40
2017-06-28T06:01:26.481Z,40
2017-06-28T06:02:07.007Z,40
2017-06-28T06:02:47.491Z,45
2017-06-28T06:03:28.021Z,45
2017-06-28T06:04:08.545Z,45
2017-06-28T06:04:49.074Z,50
2017-06-28T06:05:29.595Z,50
2017-06-28T06:06:10.122Z,50
2017-06-28T06:06:50.681Z,55
2017-06-28T06:07:31.201Z,55
2017-06-28T06:08:11.711Z,55
2017-06-28T06:08:52.251Z,55
2017-06-28T06:09:32.781Z,60
2017-06-28T06:10:13.311Z,60
2017-06-28T06:10:53.831Z,65
2017-06-28T06:11:34.345Z,70
2017-06-28T06:12:14.898Z,80
2017-06-28T06:12:55.423Z,85
2017-06-28T06:13:35.956Z,90
2017-06-28T06:14:16.470Z,95
2017-06-28T06:14:57.008Z,95
2017-06-28T06:15:37.525Z,95
2017-06-28T06:16:18.047Z,100
2017-06-28T06:16:58.577Z,100
2017-06-28T06:17:39.105Z,105
2017-06-28T06:18:19.612Z,105
2017-06-28T06:19:00.144Z,100
2017-06-28T06:19:40.674Z,95
2017-06-28T06:20:21.184Z,90
2017-06-28T06:21:01.690Z,90
2017-06-28T06:21:42.197Z,90
2017-06-28T06:22:22.833Z,90
2017-06-28T06:23:03.378Z,90
2017-06-28T06:23:43.901Z,85
2017-06-28T06:24:24.432Z,85
2017-06-28T06:25:04.961Z,85
2017-06-28T06:25:45.492Z,85
2017-06-28T06:26:26.018Z,85
2017-06-28T06:27:06.546Z,85
2017-06-28T06:27:47.059Z,85
2017-06-28T06:28:28.506Z,85
2017-06-28T06:29:09.043Z,85
2017-06-28T06:29:49.566Z,85
2017-06-28T06:30:30.151Z,80
2017-06-28T06:31:10.658Z,80
2017-06-28T06:31:51.168Z,75
2017-06-28T06:32:31.659Z,75
2017-06-28T06:33:12.174Z,70
2017-06-28T06:33:52.704Z,70
2017-06-28T06:34:33.211Z,70
2017-06-28T06:35:13.726Z,65
2017-06-28T06:35:54.288Z,65
2017-06-28T06:36:34.822Z,65
2017-06-28T06:37:15.367Z,65
2017-06-28T06:39:54.160Z,65
2017-06-28T06:40:34.697Z,65
2017-06-28T06:41:15.212Z,65
2017-06-28T06:41:55.741Z,65
2017-06-28T06:42:36.283Z,65
2017-06-28T06:43:16.805Z,65
2017-06-28T06:43:57.320Z,70
2017-06-28T06:44:37.842Z,70
2017-06-28T06:45:18.359Z,75
2017-06-28T06:45:58.879Z,80
2017-06-28T06:46:39.406Z,80
2017-06-28T06:47:19.926Z,85
2017-06-28T06:48:00.455Z,90
2017-06-28T06:48:40.976Z,95
2017-06-28T06:49:21.493Z,100
2017-06-28T06:50:02.018Z,105
2017-06-28T06:50:42.538Z,110
2017-06-28T06:51:23.058Z,110
2017-06-28T06:52:03.590Z,110
2017-06-28T06:52:44.124Z,110
2017-06-28T06:53:24.665Z,115
2017-06-28T06:54:05.307Z,115
2017-06-28T06:54:45.842Z,115
2017-06-28T06:55:26.364Z,115
2017-06-28T06:56:06.872Z,115
2017-06-28T06:56:47.406Z,115
2017-06-28T06:57:27.925Z,110
2017-06-28T06:58:08.440Z,110
2017-06-28T06:58:48.950Z,105
2017-06-28T06:59:30.001Z,105
2017-06-28T07:00:10.392Z,105
2017-06-28T07:00:50.916Z,100
2017-06-28T07:01:31.442Z,90
2017-06-28T07:02:11.964Z,85
2017-06-28T07:02:52.500Z,85
2017-06-28T07:03:33.053Z,90
2017-06-28T07:04:13.556Z,100
2017-06-28T07:06:46.764Z,105
2017-06-28T07:07:27.257Z,110
2017-06-28T07:08:07.785Z,110
2017-06-28T07:08:48.538Z,115
2017-06-28T07:09:29.147Z,115
2017-06-28T07:11:42.390Z,115
2017-06-28T07:12:22.910Z,115
2017-06-28T07:13:03.435Z,120
2017-06-28T07:13:44.021Z,120
2017-06-28T07:14:24.560Z,130
2017-06-28T07:15:05.056Z,140
2017-06-28T07:15:45.755Z,145
2017-06-28T07:16:26.337Z,155
2017-06-28T07:17:06.832Z,160
2017-06-28T07:17:47.395Z,175
2017-06-28T07:18:28.267Z,200
2017-06-28T07:19:09.041Z,225
2017-06-28T07:19:49.499Z,245
2017-06-28T07:20:30.013Z,275
2017-06-28T07:21:10.522Z,335
2017-06-28T07:21:51.033Z,325
2017-06-28T07:22:31.542Z,335
2017-06-28T07:23:12.053Z,340
2017-06-28T07:23:52.573Z,340
2017-06-28T07:24:33.094Z,330
2017-06-28T07:25:13.611Z,340
2017-06-28T07:25:54.132Z,340
2017-06-28T07:26:34.648Z,340
2017-06-28T07:27:15.168Z,345
2017-06-28T07:27:55.681Z,350
2017-06-28T07:28:36.223Z,345
2017-06-28T07:29:16.773Z,355
2017-06-28T07:29:57.308Z,350
2017-06-28T07:30:37.800Z,335
2017-06-28T07:31:18.502Z,310
2017-06-28T07:31:59.019Z,275
2017-06-28T07:32:39.512Z,245
2017-06-28T07:33:19.982Z,220
2017-06-28T07:34:00.465Z,190
2017-06-28T07:34:40.980Z,160
2017-06-28T07:35:21.460Z,155
2017-06-28T07:36:02.004Z,150
2017-06-28T07:36:42.462Z,135
2017-06-28T07:37:23.006Z,125
2017-06-28T07:38:03.518Z,125
2017-06-28T07:38:44.054Z,125
2017-06-28T07:39:24.542Z,120
2017-06-28T07:40:05.057Z,110
2017-06-28T07:40:45.595Z,105
2017-06-28T07:41:26.105Z,100
2017-06-28T07:42:06.599Z,100
2017-06-28T07:42:47.129Z,105
2017-06-28T07:43:27.622Z,95
2017-06-28T07:44:08.190Z,95
2017-06-28T07:44:48.690Z,95
2017-06-28T07:45:29.225Z,95
2017-06-28T07:46:09.746Z,100
2017-06-28T07:46:50.267Z,105
2017-06-28T07:47:30.788Z,115
2017-06-28T07:48:11.316Z,120
2017-06-28T07:48:51.825Z,115
2017-06-28T07:49:32.365Z,115
2017-06-28T07:50:12.894Z,120
2017-06-28T07:50:53.415Z,125
2017-06-28T07:51:33.944Z,130
2017-06-28T07:52:14.463Z,130
2017-06-28T07:52:54.994Z,125
2017-06-28T07:53:35.518Z,140
2017-06-28T07:54:16.037Z,150
2017-06-28T07:54:56.652Z,180
2017-06-28T07:55:37.270Z,245
2017-06-28T07:56:17.922Z,245
2017-06-28T07:56:58.638Z,270
2017-06-28T07:57:39.126Z,280
2017-06-28T07:58:19.647Z,265
2017-06-28T07:59:00.838Z,255
2017-06-28T07:59:41.468Z,220
2017-06-28T08:00:21.920Z,190
2017-06-28T08:01:02.426Z,165
2017-06-28T08:01:43.052Z,145
2017-06-28T08:02:23.579Z,135
2017-06-28T08:03:04.129Z,120
2017-06-28T08:03:44.677Z,105
2017-06-28T08:04:25.140Z,90
2017-06-28T08:05:05.658Z,85
2017-06-28T08:05:46.174Z,85
2017-06-28T08:06:26.698Z,85
2017-06-28T08:07:07.208Z,95
2017-06-28T08:07:47.742Z,100
2017-06-28T08:08:28.296Z,100
2017-06-28T08:09:08.788Z,95
2017-06-28T08:09:49.314Z,100
2017-06-28T08:10:29.836Z,105
2017-06-28T08:11:10.356Z,110
2017-06-28T08:11:50.887Z,125
2017-06-28T08:12:31.411Z,140
2017-06-28T08:13:11.909Z,155
2017-06-28T08:13:52.409Z,160
2017-06-28T08:14:32.949Z,160
2017-06-28T08:15:13.472Z,175
2017-06-28T08:15:54.006Z,190
2017-06-28T08:16:34.565Z,190
2017-06-28T08:17:15.171Z,190
2017-06-28T08:17:55.712Z,175
2017-06-28T08:18:36.213Z,160
2017-06-28T08:19:16.736Z,145
2017-06-28T08:19:57.310Z,135
2017-06-28T08:20:37.830Z,130
2017-06-28T08:21:18.335Z,130
2017-06-28T08:21:58.858Z,125
2017-06-28T08:22:39.393Z,125
2017-06-28T08:23:19.923Z,130
2017-06-28T08:24:00.746Z,135
2017-06-28T08:24:41.166Z,140
2017-06-28T08:25:21.743Z,150
2017-06-28T08:26:02.378Z,155
2017-06-28T08:26:42.854Z,160
2017-06-28T08:27:23.395Z,165
2017-06-28T08:28:03.890Z,165
2017-06-28T08:28:44.422Z,170
2017-06-28T08:29:24.932Z,170
2017-06-28T08:30:05.449Z,170
2017-06-28T08:30:45.965Z,170
2017-06-28T08:31:26.471Z,165
2017-06-28T08:32:06.982Z,160
2017-06-28T08:32:47.460Z,155
2017-06-28T08:33:27.984Z,150
2017-06-28T08:34:08.576Z,150
2017-06-28T08:34:49.080Z,150
2017-06-28T08:35:29.561Z,155
2017-06-28T08:36:10.094Z,160
2017-06-28T08:36:50.609Z,160
2017-06-28T08:37:31.112Z,165
2017-06-28T08:38:11.711Z,170
2017-06-28T08:38:52.162Z,175
2017-06-28T08:39:32.665Z,175
2017-06-28T08:40:13.350Z,180
2017-06-28T08:40:53.734Z,185
2017-06-28T08:41:34.270Z,185
2017-06-28T08:42:14.731Z,190
2017-06-28T08:42:55.224Z,195
2017-06-28T08:43:36.064Z,205
2017-06-28T08:44:16.637Z,220
2017-06-28T08:44:57.239Z,225
2017-06-28T08:45:37.686Z,235
2017-06-28T08:46:18.232Z,245
2017-06-28T08:46:58.868Z,245
2017-06-28T08:47:39.288Z,250
2017-06-28T08:48:19.794Z,250
2017-06-28T08:49:00.243Z,250
2017-06-28T08:49:40.853Z,250
2017-06-28T08:50:21.311Z,255
2017-06-28T08:51:01.866Z,260
2017-06-28T08:51:42.575Z,270
2017-06-28T08:52:23.114Z,275
2017-06-28T08:53:03.751Z,275
2017-06-28T08:53:44.244Z,275
2017-06-28T08:54:24.726Z,280
2017-06-28T08:55:05.226Z,285
2017-06-28T08:55:45.784Z,285
2017-06-28T08:56:26.420Z,285
2017-06-28T08:57:07.025Z,285
2017-06-28T08:57:47.642Z,280
2017-06-28T08:58:28.404Z,280
2017-06-28T08:59:08.946Z,280
2017-06-28T08:59:49.417Z,285
2017-06-28T09:00:30.126Z,300
2017-06-28T09:01:10.675Z,315
2017-06-28T09:01:51.208Z,320
2017-06-28T09:02:31.805Z,325
2017-06-28T09:03:12.369Z,325
2017-06-28T09:03:52.864Z,320
2017-06-28T09:04:33.419Z,315
2017-06-28T09:05:13.899Z,310
2017-06-28T09:05:54.427Z,305
2017-06-28T09:06:35.030Z,305
2017-06-28T09:07:15.462Z,300
2017-06-28T09:07:55.965Z,295
2017-06-28T09:10:14.344Z,295
2017-06-28T09:10:54.870Z,295
2017-06-28T09:11:35.389Z,295
2017-06-28T09:12:15.914Z,295
2017-06-28T09:12:56.478Z,305
2017-06-28T09:13:37.143Z,315
2017-06-28T09:14:17.868Z,320
2017-06-28T09:14:58.400Z,330
2017-06-28T09:15:38.909Z,330
2017-06-28T09:16:19.709Z,335
2017-06-28T09:18:33.051Z,335
2017-06-28T09:19:13.572Z,330
2017-06-28T09:19:54.087Z,330
2017-06-28T09:20:34.712Z,325
2017-06-28T09:21:15.233Z,335
2017-06-28T09:21:55.763Z,335
2017-06-28T09:24:14.205Z,340
2017-06-28T09:24:54.930Z,335
2017-06-28T09:25:35.405Z,330
2017-06-28T09:26:16.353Z,325
2017-06-28T09:26:56.876Z,325
2017-06-28T09:27:37.412Z,325
2017-06-28T09:28:17.970Z,320
2017-06-28T09:28:58.530Z,320
2017-06-28T09:29:38.989Z,310
2017-06-28T09:30:19.565Z,305
2017-06-28T09:31:00.017Z,300
2017-06-28T09:31:40.533Z,295
2017-06-28T09:32:21.012Z,295
2017-06-28T09:33:01.550Z,295
2017-06-28T09:33:42.044Z,295
2017-06-28T09:34:22.583Z,295
2017-06-28T09:35:03.122Z,295
2017-06-28T09:35:43.686Z,300
2017-06-28T09:36:24.189Z,290
2017-06-28T09:37:04.699Z,300
2017-06-28T09:37:45.199Z,305
2017-06-28T09:38:25.663Z,305
2017-06-28T09:39:06.184Z,300
2017-06-28T09:39:46.727Z,345
2017-06-28T09:40:27.234Z,350
2017-06-28T09:41:07.758Z,350
2017-06-28T09:41:48.255Z,355
2017-06-28T09:42:28.770Z,360
2017-06-28T09:43:09.302Z,350
2017-06-28T09:43:49.802Z,365
2017-06-28T09:44:30.340Z,355
2017-06-28T09:45:10.888Z,340
2017-06-28T09:45:51.370Z,335
2017-06-28T09:46:32.454Z,310
2017-06-28T09:47:12.926Z,300
2017-06-28T09:47:53.507Z,275
2017-06-28T09:48:33.960Z,305
2017-06-28T09:49:14.469Z,315
2017-06-28T09:49:55.289Z,260
2017-06-28T09:50:35.829Z,260
2017-06-28T09:51:16.347Z,240
2017-06-28T09:51:56.867Z,220
2017-06-28T09:52:37.407Z,230
2017-06-28T09:53:17.945Z,245
2017-06-28T09:53:58.380Z,255
2017-06-28T09:54:38.944Z,265
2017-06-28T09:55:19.430Z,280
2017-06-28T09:55:59.972Z,275
2017-06-28T09:56:40.500Z,270
2017-06-28T09:57:21.019Z,280
2017-06-28T09:58:01.477Z,280
2017-06-28T09:58:41.997Z,290
2017-06-28T09:59:22.682Z,300
2017-06-28T10:00:03.207Z,275
2017-06-28T10:00:43.713Z,270
2017-06-28T10:01:24.225Z,275
2017-06-28T10:02:04.735Z,285
2017-06-28T10:02:45.271Z,275
2017-06-28T10:03:25.808Z,290
2017-06-28T10:04:06.358Z,290